sensor_id;sensor_type;location;lat;lon;timestamp;P1;durP1;ratioP1;P2;durP2;ratioP2
25125;SDS011;13106;50.808;5.670;2024-02-28T00:02:09;87.35;;;39.47;;
25125;SDS011;13106;50.808;5.670;2024-02-28T00:04:35;86.57;;;38.42;;
25125;SDS011;13106;50.808;5.670;2024-02-28T00:07:01;84.60;;;39.42;;
25125;SDS011;13106;50.808;5.670;2024-02-28T00:09:27;93.90;;;40.50;;
25125;SDS011;13106;50.808;5.670;2024-02-28T00:11:54;91.47;;;40.13;;
25125;SDS011;13106;50.808;5.670;2024-02-28T00:14:20;102.32;;;41.47;;
25125;SDS011;13106;50.808;5.670;2024-02-28T00:16:46;119.07;;;41.33;;
25125;SDS011;13106;50.808;5.670;2024-02-28T00:19:13;119.47;;;41.90;;
25125;SDS011;13106;50.808;5.670;2024-02-28T00:21:40;140.75;;;45.67;;
25125;SDS011;13106;50.808;5.670;2024-02-28T00:24:06;190.98;;;50.33;;
25125;SDS011;13106;50.808;5.670;2024-02-28T00:26:32;144.70;;;47.05;;
25125;SDS011;13106;50.808;5.670;2024-02-28T00:28:59;120.57;;;45.53;;
25125;SDS011;13106;50.808;5.670;2024-02-28T00:31:25;122.78;;;46.47;;
25125;SDS011;13106;50.808;5.670;2024-02-28T00:33:51;115.55;;;43.80;;
25125;SDS011;13106;50.808;5.670;2024-02-28T00:36:17;117.40;;;43.45;;
25125;SDS011;13106;50.808;5.670;2024-02-28T00:38:43;104.53;;;42.17;;
25125;SDS011;13106;50.808;5.670;2024-02-28T00:41:10;104.47;;;41.22;;
25125;SDS011;13106;50.808;5.670;2024-02-28T00:43:36;98.90;;;41.92;;
25125;SDS011;13106;50.808;5.670;2024-02-28T00:46:02;107.95;;;41.92;;
25125;SDS011;13106;50.808;5.670;2024-02-28T00:48:28;96.97;;;40.33;;
25125;SDS011;13106;50.808;5.670;2024-02-28T00:50:54;112.32;;;43.60;;
25125;SDS011;13106;50.808;5.670;2024-02-28T00:53:20;106.30;;;43.45;;
25125;SDS011;13106;50.808;5.670;2024-02-28T00:55:46;106.25;;;41.97;;
25125;SDS011;13106;50.808;5.670;2024-02-28T00:58:12;102.50;;;41.70;;
25125;SDS011;13106;50.808;5.670;2024-02-28T01:00:38;115.72;;;46.00;;
25125;SDS011;13106;50.808;5.670;2024-02-28T01:03:04;125.45;;;47.88;;
25125;SDS011;13106;50.808;5.670;2024-02-28T01:05:34;241.90;;;50.63;;
25125;SDS011;13106;50.808;5.670;2024-02-28T01:08:00;273.58;;;51.65;;
25125;SDS011;13106;50.808;5.670;2024-02-28T01:10:26;516.58;;;60.10;;
25125;SDS011;13106;50.808;5.670;2024-02-28T01:12:52;217.45;;;48.38;;
25125;SDS011;13106;50.808;5.670;2024-02-28T01:15:18;238.80;;;48.60;;
25125;SDS011;13106;50.808;5.670;2024-02-28T01:17:44;399.42;;;55.80;;
25125;SDS011;13106;50.808;5.670;2024-02-28T01:20:10;203.75;;;47.35;;
25125;SDS011;13106;50.808;5.670;2024-02-28T01:22:36;348.17;;;51.78;;
25125;SDS011;13106;50.808;5.670;2024-02-28T01:25:02;357.70;;;52.17;;
25125;SDS011;13106;50.808;5.670;2024-02-28T01:27:28;300.88;;;48.88;;
25125;SDS011;13106;50.808;5.670;2024-02-28T01:29:54;259.67;;;48.20;;
25125;SDS011;13106;50.808;5.670;2024-02-28T01:32:20;284.45;;;50.47;;
25125;SDS011;13106;50.808;5.670;2024-02-28T01:34:46;430.50;;;56.33;;
25125;SDS011;13106;50.808;5.670;2024-02-28T01:37:12;327.20;;;49.90;;
25125;SDS011;13106;50.808;5.670;2024-02-28T01:39:39;349.98;;;53.22;;
25125;SDS011;13106;50.808;5.670;2024-02-28T01:42:05;289.73;;;49.00;;
25125;SDS011;13106;50.808;5.670;2024-02-28T01:44:31;289.27;;;49.08;;
25125;SDS011;13106;50.808;5.670;2024-02-28T01:46:57;204.38;;;45.60;;
25125;SDS011;13106;50.808;5.670;2024-02-28T01:49:23;247.73;;;48.30;;
25125;SDS011;13106;50.808;5.670;2024-02-28T01:51:50;239.73;;;44.50;;
25125;SDS011;13106;50.808;5.670;2024-02-28T01:54:16;147.23;;;41.70;;
25125;SDS011;13106;50.808;5.670;2024-02-28T01:56:43;169.38;;;42.92;;
25125;SDS011;13106;50.808;5.670;2024-02-28T01:59:10;165.57;;;45.40;;
25125;SDS011;13106;50.808;5.670;2024-02-28T02:01:39;121.90;;;42.22;;
25125;SDS011;13106;50.808;5.670;2024-02-28T02:04:05;114.53;;;40.00;;
25125;SDS011;13106;50.808;5.670;2024-02-28T02:06:32;123.70;;;42.38;;
25125;SDS011;13106;50.808;5.670;2024-02-28T02:08:58;153.73;;;42.15;;
25125;SDS011;13106;50.808;5.670;2024-02-28T02:11:24;206.00;;;47.78;;
25125;SDS011;13106;50.808;5.670;2024-02-28T02:13:51;168.80;;;44.90;;
25125;SDS011;13106;50.808;5.670;2024-02-28T02:16:20;127.18;;;42.17;;
25125;SDS011;13106;50.808;5.670;2024-02-28T02:18:53;115.65;;;41.15;;
25125;SDS011;13106;50.808;5.670;2024-02-28T02:21:20;104.05;;;39.92;;
25125;SDS011;13106;50.808;5.670;2024-02-28T02:23:46;109.65;;;39.40;;
25125;SDS011;13106;50.808;5.670;2024-02-28T02:26:12;111.25;;;40.05;;
25125;SDS011;13106;50.808;5.670;2024-02-28T02:28:38;133.15;;;42.50;;
25125;SDS011;13106;50.808;5.670;2024-02-28T02:31:04;117.15;;;40.63;;
25125;SDS011;13106;50.808;5.670;2024-02-28T02:33:30;128.25;;;42.00;;
25125;SDS011;13106;50.808;5.670;2024-02-28T02:35:56;140.10;;;40.38;;
25125;SDS011;13106;50.808;5.670;2024-02-28T02:38:22;103.05;;;39.08;;
25125;SDS011;13106;50.808;5.670;2024-02-28T02:40:51;140.38;;;41.58;;
25125;SDS011;13106;50.808;5.670;2024-02-28T02:43:18;111.93;;;40.53;;
25125;SDS011;13106;50.808;5.670;2024-02-28T02:45:44;104.90;;;38.03;;
25125;SDS011;13106;50.808;5.670;2024-02-28T02:48:10;113.32;;;39.40;;
25125;SDS011;13106;50.808;5.670;2024-02-28T02:50:37;131.02;;;37.97;;
25125;SDS011;13106;50.808;5.670;2024-02-28T02:53:03;119.80;;;39.95;;
25125;SDS011;13106;50.808;5.670;2024-02-28T02:55:29;112.15;;;38.47;;
25125;SDS011;13106;50.808;5.670;2024-02-28T02:57:55;134.57;;;38.38;;
25125;SDS011;13106;50.808;5.670;2024-02-28T03:00:22;115.25;;;38.08;;
25125;SDS011;13106;50.808;5.670;2024-02-28T03:02:48;114.40;;;39.00;;
25125;SDS011;13106;50.808;5.670;2024-02-28T03:05:14;141.60;;;43.65;;
25125;SDS011;13106;50.808;5.670;2024-02-28T03:07:40;158.93;;;41.28;;
25125;SDS011;13106;50.808;5.670;2024-02-28T03:10:06;132.98;;;39.67;;
25125;SDS011;13106;50.808;5.670;2024-02-28T03:12:34;129.95;;;39.45;;
25125;SDS011;13106;50.808;5.670;2024-02-28T03:15:00;221.02;;;43.42;;
25125;SDS011;13106;50.808;5.670;2024-02-28T03:17:26;192.70;;;41.83;;
25125;SDS011;13106;50.808;5.670;2024-02-28T03:19:52;138.18;;;40.88;;
25125;SDS011;13106;50.808;5.670;2024-02-28T03:22:18;129.75;;;39.30;;
25125;SDS011;13106;50.808;5.670;2024-02-28T03:24:44;131.05;;;40.20;;
25125;SDS011;13106;50.808;5.670;2024-02-28T03:27:10;144.93;;;38.30;;
25125;SDS011;13106;50.808;5.670;2024-02-28T03:29:36;217.70;;;43.38;;
25125;SDS011;13106;50.808;5.670;2024-02-28T03:32:02;138.65;;;40.20;;
25125;SDS011;13106;50.808;5.670;2024-02-28T03:34:29;151.63;;;39.83;;
25125;SDS011;13106;50.808;5.670;2024-02-28T03:36:55;145.80;;;38.95;;
25125;SDS011;13106;50.808;5.670;2024-02-28T03:39:21;157.90;;;40.58;;
25125;SDS011;13106;50.808;5.670;2024-02-28T03:41:47;142.63;;;40.38;;
25125;SDS011;13106;50.808;5.670;2024-02-28T03:44:13;166.63;;;41.10;;
25125;SDS011;13106;50.808;5.670;2024-02-28T03:46:39;144.45;;;41.75;;
25125;SDS011;13106;50.808;5.670;2024-02-28T03:49:05;146.80;;;39.70;;
25125;SDS011;13106;50.808;5.670;2024-02-28T03:51:31;116.75;;;38.70;;
25125;SDS011;13106;50.808;5.670;2024-02-28T03:53:57;116.70;;;38.88;;
25125;SDS011;13106;50.808;5.670;2024-02-28T03:56:23;119.20;;;38.05;;
25125;SDS011;13106;50.808;5.670;2024-02-28T03:58:50;117.22;;;38.13;;
25125;SDS011;13106;50.808;5.670;2024-02-28T04:01:16;117.60;;;36.53;;
25125;SDS011;13106;50.808;5.670;2024-02-28T04:03:42;112.15;;;38.90;;
25125;SDS011;13106;50.808;5.670;2024-02-28T04:06:08;103.25;;;36.97;;
25125;SDS011;13106;50.808;5.670;2024-02-28T04:08:34;117.93;;;37.08;;
25125;SDS011;13106;50.808;5.670;2024-02-28T04:11:00;107.53;;;36.72;;
25125;SDS011;13106;50.808;5.670;2024-02-28T04:13:26;114.28;;;36.88;;
25125;SDS011;13106;50.808;5.670;2024-02-28T04:15:53;130.68;;;40.40;;
25125;SDS011;13106;50.808;5.670;2024-02-28T04:18:19;118.85;;;37.10;;
25125;SDS011;13106;50.808;5.670;2024-02-28T04:20:45;102.75;;;38.30;;
25125;SDS011;13106;50.808;5.670;2024-02-28T04:23:11;140.10;;;38.33;;
25125;SDS011;13106;50.808;5.670;2024-02-28T04:25:37;114.95;;;39.72;;
25125;SDS011;13106;50.808;5.670;2024-02-28T04:28:05;166.02;;;43.53;;
25125;SDS011;13106;50.808;5.670;2024-02-28T04:30:31;243.38;;;42.17;;
25125;SDS011;13106;50.808;5.670;2024-02-28T04:32:57;144.95;;;39.50;;
25125;SDS011;13106;50.808;5.670;2024-02-28T04:35:23;224.38;;;42.10;;
25125;SDS011;13106;50.808;5.670;2024-02-28T04:37:50;155.88;;;40.33;;
25125;SDS011;13106;50.808;5.670;2024-02-28T04:40:16;242.93;;;43.78;;
25125;SDS011;13106;50.808;5.670;2024-02-28T04:42:42;141.07;;;40.30;;
25125;SDS011;13106;50.808;5.670;2024-02-28T04:45:08;187.05;;;41.33;;
25125;SDS011;13106;50.808;5.670;2024-02-28T04:47:34;201.88;;;40.97;;
25125;SDS011;13106;50.808;5.670;2024-02-28T04:50:01;185.00;;;41.70;;
25125;SDS011;13106;50.808;5.670;2024-02-28T04:52:29;211.00;;;41.38;;
25125;SDS011;13106;50.808;5.670;2024-02-28T04:54:55;245.30;;;43.90;;
25125;SDS011;13106;50.808;5.670;2024-02-28T04:57:21;228.57;;;45.95;;
25125;SDS011;13106;50.808;5.670;2024-02-28T04:59:47;207.18;;;43.33;;
25125;SDS011;13106;50.808;5.670;2024-02-28T05:02:14;246.30;;;44.53;;
25125;SDS011;13106;50.808;5.670;2024-02-28T05:04:40;201.65;;;42.78;;
25125;SDS011;13106;50.808;5.670;2024-02-28T05:07:06;238.45;;;45.78;;
25125;SDS011;13106;50.808;5.670;2024-02-28T05:09:32;209.00;;;41.97;;
25125;SDS011;13106;50.808;5.670;2024-02-28T05:11:58;287.15;;;44.67;;
25125;SDS011;13106;50.808;5.670;2024-02-28T05:14:25;300.02;;;44.25;;
25125;SDS011;13106;50.808;5.670;2024-02-28T05:16:51;312.60;;;46.13;;
25125;SDS011;13106;50.808;5.670;2024-02-28T05:19:17;253.25;;;42.65;;
25125;SDS011;13106;50.808;5.670;2024-02-28T05:21:43;256.52;;;42.72;;
25125;SDS011;13106;50.808;5.670;2024-02-28T05:24:09;285.00;;;40.65;;
25125;SDS011;13106;50.808;5.670;2024-02-28T05:26:35;302.10;;;44.33;;
25125;SDS011;13106;50.808;5.670;2024-02-28T05:29:02;259.00;;;42.78;;
25125;SDS011;13106;50.808;5.670;2024-02-28T05:31:28;335.20;;;46.33;;
25125;SDS011;13106;50.808;5.670;2024-02-28T05:33:56;288.15;;;42.50;;
25125;SDS011;13106;50.808;5.670;2024-02-28T05:36:22;301.63;;;46.35;;
25125;SDS011;13106;50.808;5.670;2024-02-28T05:38:49;208.63;;;44.67;;
25125;SDS011;13106;50.808;5.670;2024-02-28T05:41:16;294.50;;;44.63;;
25125;SDS011;13106;50.808;5.670;2024-02-28T05:43:45;215.98;;;41.22;;
25125;SDS011;13106;50.808;5.670;2024-02-28T05:46:12;212.27;;;41.10;;
25125;SDS011;13106;50.808;5.670;2024-02-28T05:48:38;172.13;;;39.78;;
25125;SDS011;13106;50.808;5.670;2024-02-28T05:51:04;183.57;;;41.35;;
25125;SDS011;13106;50.808;5.670;2024-02-28T05:53:30;196.38;;;45.20;;
25125;SDS011;13106;50.808;5.670;2024-02-28T05:56:03;168.00;;;42.08;;
25125;SDS011;13106;50.808;5.670;2024-02-28T05:58:30;170.93;;;39.70;;
25125;SDS011;13106;50.808;5.670;2024-02-28T06:00:56;197.38;;;43.90;;
25125;SDS011;13106;50.808;5.670;2024-02-28T06:03:22;196.95;;;44.08;;
25125;SDS011;13106;50.808;5.670;2024-02-28T06:05:48;198.98;;;43.15;;
25125;SDS011;13106;50.808;5.670;2024-02-28T06:08:14;187.93;;;46.22;;
25125;SDS011;13106;50.808;5.670;2024-02-28T06:10:41;178.38;;;43.55;;
25125;SDS011;13106;50.808;5.670;2024-02-28T06:13:11;186.77;;;42.05;;
25125;SDS011;13106;50.808;5.670;2024-02-28T06:15:38;192.77;;;42.55;;
25125;SDS011;13106;50.808;5.670;2024-02-28T06:18:04;197.00;;;42.33;;
25125;SDS011;13106;50.808;5.670;2024-02-28T06:20:30;190.40;;;42.22;;
25125;SDS011;13106;50.808;5.670;2024-02-28T06:22:56;186.95;;;40.55;;
25125;SDS011;13106;50.808;5.670;2024-02-28T06:25:22;184.38;;;42.90;;
25125;SDS011;13106;50.808;5.670;2024-02-28T06:27:49;185.65;;;41.90;;
25125;SDS011;13106;50.808;5.670;2024-02-28T06:30:16;169.05;;;41.17;;
25125;SDS011;13106;50.808;5.670;2024-02-28T06:32:42;180.10;;;39.75;;
25125;SDS011;13106;50.808;5.670;2024-02-28T06:35:08;164.60;;;41.00;;
25125;SDS011;13106;50.808;5.670;2024-02-28T06:37:34;165.25;;;40.13;;
25125;SDS011;13106;50.808;5.670;2024-02-28T06:40:01;164.38;;;40.58;;
25125;SDS011;13106;50.808;5.670;2024-02-28T06:42:29;155.15;;;38.15;;
25125;SDS011;13106;50.808;5.670;2024-02-28T06:44:55;161.90;;;39.13;;
25125;SDS011;13106;50.808;5.670;2024-02-28T06:47:21;164.60;;;37.90;;
25125;SDS011;13106;50.808;5.670;2024-02-28T06:49:47;162.88;;;39.28;;
25125;SDS011;13106;50.808;5.670;2024-02-28T06:52:14;158.20;;;37.58;;
25125;SDS011;13106;50.808;5.670;2024-02-28T06:54:40;170.95;;;39.90;;
25125;SDS011;13106;50.808;5.670;2024-02-28T06:57:06;157.50;;;40.00;;
25125;SDS011;13106;50.808;5.670;2024-02-28T06:59:32;137.57;;;36.20;;
25125;SDS011;13106;50.808;5.670;2024-02-28T07:01:58;143.75;;;39.03;;
25125;SDS011;13106;50.808;5.670;2024-02-28T07:04:24;147.50;;;36.53;;
25125;SDS011;13106;50.808;5.670;2024-02-28T07:06:51;151.23;;;38.63;;
25125;SDS011;13106;50.808;5.670;2024-02-28T07:09:17;158.25;;;38.38;;
25125;SDS011;13106;50.808;5.670;2024-02-28T07:11:43;147.75;;;37.95;;
25125;SDS011;13106;50.808;5.670;2024-02-28T07:14:09;163.15;;;39.83;;
25125;SDS011;13106;50.808;5.670;2024-02-28T07:16:35;146.93;;;36.40;;
25125;SDS011;13106;50.808;5.670;2024-02-28T07:19:01;140.43;;;36.83;;
25125;SDS011;13106;50.808;5.670;2024-02-28T07:21:27;145.10;;;39.97;;
25125;SDS011;13106;50.808;5.670;2024-02-28T07:23:53;126.03;;;36.33;;
25125;SDS011;13106;50.808;5.670;2024-02-28T07:26:19;155.07;;;40.05;;
25125;SDS011;13106;50.808;5.670;2024-02-28T07:28:45;124.65;;;36.88;;
25125;SDS011;13106;50.808;5.670;2024-02-28T07:31:17;131.57;;;37.17;;
25125;SDS011;13106;50.808;5.670;2024-02-28T07:33:44;124.07;;;35.03;;
25125;SDS011;13106;50.808;5.670;2024-02-28T07:36:10;113.93;;;36.13;;
25125;SDS011;13106;50.808;5.670;2024-02-28T07:38:36;119.63;;;34.63;;
25125;SDS011;13106;50.808;5.670;2024-02-28T07:41:02;114.13;;;33.42;;
25125;SDS011;13106;50.808;5.670;2024-02-28T07:43:28;106.47;;;35.17;;
25125;SDS011;13106;50.808;5.670;2024-02-28T07:45:58;122.95;;;37.95;;
25125;SDS011;13106;50.808;5.670;2024-02-28T07:48:24;111.05;;;32.42;;
25125;SDS011;13106;50.808;5.670;2024-02-28T07:50:50;111.90;;;34.20;;
25125;SDS011;13106;50.808;5.670;2024-02-28T07:53:19;107.70;;;32.53;;
25125;SDS011;13106;50.808;5.670;2024-02-28T07:55:46;107.68;;;33.33;;
25125;SDS011;13106;50.808;5.670;2024-02-28T07:58:12;105.25;;;31.20;;
25125;SDS011;13106;50.808;5.670;2024-02-28T08:00:41;98.93;;;33.40;;
25125;SDS011;13106;50.808;5.670;2024-02-28T08:03:09;101.28;;;32.53;;
25125;SDS011;13106;50.808;5.670;2024-02-28T08:05:35;100.72;;;33.03;;
25125;SDS011;13106;50.808;5.670;2024-02-28T08:08:05;106.72;;;32.08;;
25125;SDS011;13106;50.808;5.670;2024-02-28T08:10:31;98.38;;;32.60;;
25125;SDS011;13106;50.808;5.670;2024-02-28T08:12:57;100.60;;;30.58;;
25125;SDS011;13106;50.808;5.670;2024-02-28T08:15:23;104.28;;;32.83;;
25125;SDS011;13106;50.808;5.670;2024-02-28T08:17:49;98.72;;;32.72;;
25125;SDS011;13106;50.808;5.670;2024-02-28T08:20:15;96.10;;;32.00;;
25125;SDS011;13106;50.808;5.670;2024-02-28T08:22:41;91.10;;;30.73;;
25125;SDS011;13106;50.808;5.670;2024-02-28T08:25:07;92.00;;;30.02;;
25125;SDS011;13106;50.808;5.670;2024-02-28T08:27:36;93.88;;;30.17;;
25125;SDS011;13106;50.808;5.670;2024-02-28T08:30:03;76.80;;;26.90;;
25125;SDS011;13106;50.808;5.670;2024-02-28T08:32:33;86.35;;;28.20;;
25125;SDS011;13106;50.808;5.670;2024-02-28T08:34:59;74.93;;;28.48;;
25125;SDS011;13106;50.808;5.670;2024-02-28T08:37:25;79.70;;;28.45;;
25125;SDS011;13106;50.808;5.670;2024-02-28T08:39:53;80.35;;;28.17;;
25125;SDS011;13106;50.808;5.670;2024-02-28T08:42:24;78.25;;;26.48;;
25125;SDS011;13106;50.808;5.670;2024-02-28T08:44:50;77.78;;;28.02;;
25125;SDS011;13106;50.808;5.670;2024-02-28T08:47:16;78.22;;;26.58;;
25125;SDS011;13106;50.808;5.670;2024-02-28T08:49:43;70.18;;;26.10;;
25125;SDS011;13106;50.808;5.670;2024-02-28T08:52:10;72.18;;;26.17;;
25125;SDS011;13106;50.808;5.670;2024-02-28T08:54:36;68.15;;;25.75;;
25125;SDS011;13106;50.808;5.670;2024-02-28T08:57:04;74.88;;;25.38;;
25125;SDS011;13106;50.808;5.670;2024-02-28T08:59:30;72.43;;;26.35;;
25125;SDS011;13106;50.808;5.670;2024-02-28T09:01:56;59.67;;;23.35;;
25125;SDS011;13106;50.808;5.670;2024-02-28T09:04:22;53.15;;;22.17;;
25125;SDS011;13106;50.808;5.670;2024-02-28T09:06:48;60.28;;;23.70;;
25125;SDS011;13106;50.808;5.670;2024-02-28T09:09:14;60.15;;;24.08;;
25125;SDS011;13106;50.808;5.670;2024-02-28T09:11:41;67.90;;;26.38;;
25125;SDS011;13106;50.808;5.670;2024-02-28T09:14:07;57.00;;;22.20;;
25125;SDS011;13106;50.808;5.670;2024-02-28T09:16:33;62.15;;;23.80;;
25125;SDS011;13106;50.808;5.670;2024-02-28T09:19:00;54.25;;;21.67;;
25125;SDS011;13106;50.808;5.670;2024-02-28T09:21:26;70.40;;;46.80;;
25125;SDS011;13106;50.808;5.670;2024-02-28T09:23:52;56.42;;;30.33;;
25125;SDS011;13106;50.808;5.670;2024-02-28T09:26:18;63.65;;;36.33;;
25125;SDS011;13106;50.808;5.670;2024-02-28T09:28:44;55.03;;;25.00;;
25125;SDS011;13106;50.808;5.670;2024-02-28T09:31:10;58.85;;;33.92;;
25125;SDS011;13106;50.808;5.670;2024-02-28T09:33:36;56.17;;;27.10;;
25125;SDS011;13106;50.808;5.670;2024-02-28T09:36:04;56.50;;;36.72;;
25125;SDS011;13106;50.808;5.670;2024-02-28T09:38:30;64.18;;;38.05;;
25125;SDS011;13106;50.808;5.670;2024-02-28T09:40:57;54.25;;;32.22;;
25125;SDS011;13106;50.808;5.670;2024-02-28T09:43:31;47.95;;;19.95;;
25125;SDS011;13106;50.808;5.670;2024-02-28T09:46:03;48.60;;;17.88;;
25125;SDS011;13106;50.808;5.670;2024-02-28T09:48:30;43.85;;;19.52;;
25125;SDS011;13106;50.808;5.670;2024-02-28T09:50:57;39.70;;;17.88;;
25125;SDS011;13106;50.808;5.670;2024-02-28T09:53:23;42.15;;;21.95;;
25125;SDS011;13106;50.808;5.670;2024-02-28T09:55:50;35.40;;;15.77;;
25125;SDS011;13106;50.808;5.670;2024-02-28T09:58:17;40.20;;;15.52;;
25125;SDS011;13106;50.808;5.670;2024-02-28T10:00:44;39.72;;;16.75;;
25125;SDS011;13106;50.808;5.670;2024-02-28T10:03:12;36.95;;;15.90;;
25125;SDS011;13106;50.808;5.670;2024-02-28T10:05:39;38.55;;;17.38;;
25125;SDS011;13106;50.808;5.670;2024-02-28T10:08:05;31.27;;;16.40;;
25125;SDS011;13106;50.808;5.670;2024-02-28T10:10:36;41.15;;;29.08;;
25125;SDS011;13106;50.808;5.670;2024-02-28T10:13:02;33.85;;;15.98;;
25125;SDS011;13106;50.808;5.670;2024-02-28T10:15:28;30.90;;;15.23;;
25125;SDS011;13106;50.808;5.670;2024-02-28T10:17:54;34.83;;;17.33;;
25125;SDS011;13106;50.808;5.670;2024-02-28T10:20:20;32.97;;;14.85;;
25125;SDS011;13106;50.808;5.670;2024-02-28T10:22:46;29.85;;;14.32;;
25125;SDS011;13106;50.808;5.670;2024-02-28T10:25:13;35.58;;;15.52;;
25125;SDS011;13106;50.808;5.670;2024-02-28T10:27:39;33.45;;;15.10;;
25125;SDS011;13106;50.808;5.670;2024-02-28T10:30:06;31.15;;;14.80;;
25125;SDS011;13106;50.808;5.670;2024-02-28T10:32:32;34.22;;;14.85;;
25125;SDS011;13106;50.808;5.670;2024-02-28T10:35:03;32.50;;;15.52;;
25125;SDS011;13106;50.808;5.670;2024-02-28T10:37:31;33.72;;;15.85;;
25125;SDS011;13106;50.808;5.670;2024-02-28T10:39:58;35.58;;;14.57;;
25125;SDS011;13106;50.808;5.670;2024-02-28T10:42:27;28.75;;;14.13;;
25125;SDS011;13106;50.808;5.670;2024-02-28T10:44:55;31.33;;;13.30;;
25125;SDS011;13106;50.808;5.670;2024-02-28T10:47:24;31.40;;;15.30;;
25125;SDS011;13106;50.808;5.670;2024-02-28T10:49:50;31.65;;;14.15;;
25125;SDS011;13106;50.808;5.670;2024-02-28T10:52:16;29.63;;;14.25;;
25125;SDS011;13106;50.808;5.670;2024-02-28T10:54:46;24.83;;;13.40;;
25125;SDS011;13106;50.808;5.670;2024-02-28T10:57:16;26.73;;;12.93;;
25125;SDS011;13106;50.808;5.670;2024-02-28T10:59:43;26.73;;;13.98;;
25125;SDS011;13106;50.808;5.670;2024-02-28T11:02:10;27.08;;;13.70;;
25125;SDS011;13106;50.808;5.670;2024-02-28T11:04:36;28.40;;;13.45;;
25125;SDS011;13106;50.808;5.670;2024-02-28T11:07:02;21.42;;;11.52;;
25125;SDS011;13106;50.808;5.670;2024-02-28T11:09:28;26.48;;;13.35;;
25125;SDS011;13106;50.808;5.670;2024-02-28T11:11:57;27.37;;;13.30;;
25125;SDS011;13106;50.808;5.670;2024-02-28T11:14:24;24.27;;;13.10;;
25125;SDS011;13106;50.808;5.670;2024-02-28T11:19:28;24.75;;;12.15;;
25125;SDS011;13106;50.808;5.670;2024-02-28T11:21:55;23.25;;;12.05;;
25125;SDS011;13106;50.808;5.670;2024-02-28T11:24:25;30.40;;;13.02;;
25125;SDS011;13106;50.808;5.670;2024-02-28T11:26:54;26.83;;;13.60;;
25125;SDS011;13106;50.808;5.670;2024-02-28T11:29:26;27.10;;;13.77;;
25125;SDS011;13106;50.808;5.670;2024-02-28T11:31:59;23.58;;;13.23;;
25125;SDS011;13106;50.808;5.670;2024-02-28T11:34:25;25.45;;;12.73;;
25125;SDS011;13106;50.808;5.670;2024-02-28T11:36:51;24.25;;;13.43;;
25125;SDS011;13106;50.808;5.670;2024-02-28T11:39:18;21.88;;;12.05;;
25125;SDS011;13106;50.808;5.670;2024-02-28T11:41:46;24.02;;;12.23;;
25125;SDS011;13106;50.808;5.670;2024-02-28T11:44:13;23.38;;;12.65;;
25125;SDS011;13106;50.808;5.670;2024-02-28T11:46:42;22.85;;;12.55;;
25125;SDS011;13106;50.808;5.670;2024-02-28T11:49:08;25.80;;;13.77;;
25125;SDS011;13106;50.808;5.670;2024-02-28T11:51:35;26.48;;;13.20;;
25125;SDS011;13106;50.808;5.670;2024-02-28T11:54:01;24.83;;;13.13;;
25125;SDS011;13106;50.808;5.670;2024-02-28T11:56:27;24.55;;;12.55;;
25125;SDS011;13106;50.808;5.670;2024-02-28T11:58:53;26.33;;;12.32;;
25125;SDS011;13106;50.808;5.670;2024-02-28T12:01:42;21.08;;;11.40;;
25125;SDS011;13106;50.808;5.670;2024-02-28T12:04:08;19.55;;;10.35;;
25125;SDS011;13106;50.808;5.670;2024-02-28T12:06:35;20.63;;;11.50;;
25125;SDS011;13106;50.808;5.670;2024-02-28T12:09:02;20.35;;;10.30;;
25125;SDS011;13106;50.808;5.670;2024-02-28T12:11:29;21.33;;;10.77;;
25125;SDS011;13106;50.808;5.670;2024-02-28T12:13:55;17.90;;;8.98;;
25125;SDS011;13106;50.808;5.670;2024-02-28T12:16:22;20.58;;;9.70;;
25125;SDS011;13106;50.808;5.670;2024-02-28T12:18:48;16.30;;;9.43;;
25125;SDS011;13106;50.808;5.670;2024-02-28T12:21:14;20.70;;;10.45;;
25125;SDS011;13106;50.808;5.670;2024-02-28T12:23:40;20.40;;;10.93;;
25125;SDS011;13106;50.808;5.670;2024-02-28T12:26:06;18.65;;;10.57;;
25125;SDS011;13106;50.808;5.670;2024-02-28T12:28:33;17.23;;;9.45;;
25125;SDS011;13106;50.808;5.670;2024-02-28T12:30:59;17.77;;;9.45;;
25125;SDS011;13106;50.808;5.670;2024-02-28T12:33:25;15.85;;;9.05;;
25125;SDS011;13106;50.808;5.670;2024-02-28T12:35:51;19.63;;;11.75;;
25125;SDS011;13106;50.808;5.670;2024-02-28T12:38:17;15.30;;;8.27;;
25125;SDS011;13106;50.808;5.670;2024-02-28T12:40:45;15.32;;;7.03;;
25125;SDS011;13106;50.808;5.670;2024-02-28T12:43:11;13.63;;;7.32;;
25125;SDS011;13106;50.808;5.670;2024-02-28T12:45:37;13.90;;;7.13;;
25125;SDS011;13106;50.808;5.670;2024-02-28T12:48:03;14.45;;;7.40;;
25125;SDS011;13106;50.808;5.670;2024-02-28T12:50:31;12.85;;;7.03;;
25125;SDS011;13106;50.808;5.670;2024-02-28T12:52:58;9.60;;;5.68;;
25125;SDS011;13106;50.808;5.670;2024-02-28T12:55:25;15.68;;;7.18;;
25125;SDS011;13106;50.808;5.670;2024-02-28T12:57:51;10.65;;;6.15;;
25125;SDS011;13106;50.808;5.670;2024-02-28T13:00:17;9.05;;;4.65;;
25125;SDS011;13106;50.808;5.670;2024-02-28T13:02:44;8.65;;;4.28;;
25125;SDS011;13106;50.808;5.670;2024-02-28T13:05:13;8.13;;;4.38;;
25125;SDS011;13106;50.808;5.670;2024-02-28T13:07:39;9.48;;;5.13;;
25125;SDS011;13106;50.808;5.670;2024-02-28T13:10:06;11.32;;;5.68;;
25125;SDS011;13106;50.808;5.670;2024-02-28T13:12:34;10.05;;;5.70;;
25125;SDS011;13106;50.808;5.670;2024-02-28T13:15:00;6.25;;;3.63;;
25125;SDS011;13106;50.808;5.670;2024-02-28T13:17:26;7.13;;;4.05;;
25125;SDS011;13106;50.808;5.670;2024-02-28T13:19:52;11.55;;;5.05;;
25125;SDS011;13106;50.808;5.670;2024-02-28T13:22:18;10.30;;;5.07;;
25125;SDS011;13106;50.808;5.670;2024-02-28T13:24:44;8.05;;;4.85;;
25125;SDS011;13106;50.808;5.670;2024-02-28T13:27:10;9.18;;;5.43;;
25125;SDS011;13106;50.808;5.670;2024-02-28T13:29:37;9.25;;;5.35;;
25125;SDS011;13106;50.808;5.670;2024-02-28T13:32:03;13.50;;;6.50;;
25125;SDS011;13106;50.808;5.670;2024-02-28T13:34:29;13.63;;;8.77;;
25125;SDS011;13106;50.808;5.670;2024-02-28T13:36:55;13.23;;;6.43;;
25125;SDS011;13106;50.808;5.670;2024-02-28T13:39:21;10.30;;;5.90;;
25125;SDS011;13106;50.808;5.670;2024-02-28T13:41:49;13.05;;;7.13;;
25125;SDS011;13106;50.808;5.670;2024-02-28T13:44:17;13.02;;;6.20;;
25125;SDS011;13106;50.808;5.670;2024-02-28T13:46:44;12.30;;;7.18;;
25125;SDS011;13106;50.808;5.670;2024-02-28T13:49:10;14.63;;;6.38;;
25125;SDS011;13106;50.808;5.670;2024-02-28T13:51:36;11.68;;;6.28;;
25125;SDS011;13106;50.808;5.670;2024-02-28T13:54:02;11.73;;;6.85;;
25125;SDS011;13106;50.808;5.670;2024-02-28T13:56:28;12.43;;;6.80;;
25125;SDS011;13106;50.808;5.670;2024-02-28T13:58:55;12.93;;;7.25;;
25125;SDS011;13106;50.808;5.670;2024-02-28T14:01:21;11.48;;;6.85;;
25125;SDS011;13106;50.808;5.670;2024-02-28T14:03:47;15.23;;;7.35;;
25125;SDS011;13106;50.808;5.670;2024-02-28T14:06:13;14.85;;;7.85;;
25125;SDS011;13106;50.808;5.670;2024-02-28T14:08:39;16.90;;;7.55;;
25125;SDS011;13106;50.808;5.670;2024-02-28T14:11:05;11.68;;;7.07;;
25125;SDS011;13106;50.808;5.670;2024-02-28T14:13:32;12.55;;;7.30;;
25125;SDS011;13106;50.808;5.670;2024-02-28T14:15:58;13.57;;;7.30;;